Time;durP1;ratioP1;P1;durP2;ratioP2;P2;SDS_P1;SDS_P2;PMS_P1;PMS_P2;Temp;Humidity;BMP_temperature;BMP_pressure;BME280_temperature;BME280_humidity;BME280_pressure;Samples;Min_cycle;Max_cycle;Signal;HPM_P1;HPM_P2
2021/03/11 00:04:15;;;;;;;0.60;0.60;;;;;;;5.49;51.65;96465.31;299395;213;63009;-55
2021/03/11 00:09:16;;;;;;;0.60;0.60;;;;;;;5.60;51.01;96447.22;299395;233;63021;-54
2021/03/11 00:14:17;;;;;;;0.70;0.70;;;;;;;5.59;51.39;96445.62;299395;319;63009;-54
2021/03/11 00:19:21;;;;;;;0.60;0.60;;;;;;;5.58;51.33;96450.19;299395;259;63005;-54
2021/03/11 00:24:22;;;;;;;0.60;0.60;;;;;;;5.59;51.41;96446.44;299417;347;63009;-56
2021/03/11 00:29:24;;;;;;;0.60;0.60;;;;;;;5.62;51.55;96455.84;299395;266;63004;-54
2021/03/11 00:34:26;;;;;;;0.60;0.60;;;;;;;5.69;51.28;96451.00;299395;198;63009;-54
2021/03/11 00:39:27;;;;;;;0.60;0.60;;;;;;;5.70;51.18;96458.00;299395;252;63005;-54
2021/03/11 00:44:28;;;;;;;0.60;0.60;;;;;;;5.73;51.42;96458.25;299395;264;63009;-54
2021/03/11 00:49:29;;;;;;;0.60;0.60;;;;;;;5.76;51.46;96443.44;299395;303;63004;-54
2021/03/11 00:54:30;;;;;;;0.70;0.70;;;;;;;5.79;51.81;96445.59;299395;216;63009;-55
2021/03/11 00:59:31;;;;;;;0.70;0.70;;;;;;;5.75;51.89;96451.81;299395;333;63004;-54
2021/03/11 01:04:32;;;;;;;0.93;0.93;;;;;;;5.92;52.00;96441.53;299395;287;63009;-54
2021/03/11 01:09:34;;;;;;;0.60;0.60;;;;;;;5.83;52.22;96452.06;299395;197;63005;-55
2021/03/11 01:14:35;;;;;;;0.60;0.60;;;;;;;5.82;52.25;96445.06;299395;338;63008;-54
2021/03/11 01:19:36;;;;;;;0.60;0.60;;;;;;;5.83;52.41;96440.47;299395;266;63004;-53
2021/03/11 01:24:37;;;;;;;0.70;0.70;;;;;;;5.85;52.21;96428.34;299395;206;63009;-54
2021/03/11 01:29:38;;;;;;;0.60;0.60;;;;;;;5.81;52.59;96405.75;299395;254;63004;-54
2021/03/11 01:34:40;;;;;;;0.60;0.60;;;;;;;5.98;52.82;96398.16;299395;199;63009;-53
2021/03/11 01:39:40;;;;;;;0.60;0.60;;;;;;;5.93;53.16;96370.44;299395;197;63005;-55
2021/03/11 01:44:42;;;;;;;0.60;0.60;;;;;;;5.93;53.26;96360.47;299395;224;63008;-54
2021/03/11 01:49:43;;;;;;;0.60;0.60;;;;;;;5.96;53.48;96346.47;299395;241;63004;-53
2021/03/11 01:54:45;;;;;;;0.60;0.60;;;;;;;6.21;54.00;96323.19;299395;202;63009;-56
2021/03/11 01:59:48;;;;;;;0.60;0.60;;;;;;;6.20;54.06;96321.59;299395;303;63004;-53
2021/03/11 02:04:50;;;;;;;0.70;0.70;;;;;;;6.16;55.99;96307.06;299395;196;63009;-54
2021/03/11 02:09:51;;;;;;;0.65;0.65;;;;;;;6.10;55.87;96289.31;299395;202;63005;-57
2021/03/11 02:15:15;;;;;;;0.60;0.60;;;;;;;6.03;56.65;96268.06;299395;223;63009;-54
2021/03/11 02:20:42;;;;;;;0.60;0.60;;;;;;;6.07;55.84;96263.75;299395;262;63009;-54
2021/03/11 02:26:05;;;;;;;0.60;0.60;;;;;;;6.00;56.15;96252.47;299395;214;63005;-55
2021/03/11 02:31:07;;;;;;;0.60;0.60;;;;;;;5.97;56.56;96240.38;299395;231;63009;-53
2021/03/11 02:36:09;;;;;;;0.60;0.60;;;;;;;5.99;55.96;96213.16;299395;196;63004;-54
2021/03/11 02:41:12;;;;;;;0.70;0.70;;;;;;;6.07;55.42;96198.31;299395;319;63009;-53
2021/03/11 02:46:16;;;;;;;0.60;0.60;;;;;;;6.01;55.54;96202.91;299395;229;63005;-54
2021/03/11 02:51:18;;;;;;;0.60;0.60;;;;;;;5.99;55.18;96191.63;299479;211;125009;-56
2021/03/11 02:56:21;;;;;;;0.60;0.60;;;;;;;5.92;55.17;96181.16;299395;345;63005;-54
2021/03/11 03:01:24;;;;;;;0.60;0.60;;;;;;;6.05;54.08;96169.75;299395;374;63009;-54
2021/03/11 03:06:27;;;;;;;0.60;0.60;;;;;;;5.93;55.01;96161.22;299395;216;63004;-53
2021/03/11 03:11:29;;;;;;;0.60;0.60;;;;;;;5.97;54.66;96156.88;299395;290;63009;-54
2021/03/11 03:16:30;;;;;;;0.60;0.60;;;;;;;6.00;54.40;96132.09;299395;203;63010;-54
2021/03/11 03:21:32;;;;;;;0.70;0.70;;;;;;;6.12;53.23;96122.84;299395;196;63008;-53
2021/03/11 03:26:33;;;;;;;0.60;0.60;;;;;;;6.03;54.20;96118.06;299395;277;63004;-53
2021/03/11 03:31:34;;;;;;;0.68;0.68;;;;;;;6.04;55.65;96119.69;299395;202;63009;-53
2021/03/11 03:36:35;;;;;;;0.60;0.60;;;;;;;6.00;55.90;96118.62;299395;220;63004;-54
2021/03/11 03:41:40;;;;;;;0.60;0.60;;;;;;;5.99;55.90;96118.91;299395;198;63009;-55
2021/03/11 03:46:43;;;;;;;0.60;0.60;;;;;;;6.10;55.06;96106.97;299395;199;63005;-54
2021/03/11 03:51:48;;;;;;;0.60;0.60;;;;;;;6.10;55.06;96100.78;299396;304;63008;-54
2021/03/11 03:57:00;;;;;;;0.60;0.60;;;;;;;6.30;55.05;96097.87;299396;204;63004;-55
2021/03/11 04:02:06;;;;;;;0.60;0.60;;;;;;;6.24;55.76;96104.41;299396;232;63009;-54
2021/03/11 04:07:13;;;;;;;0.60;0.60;;;;;;;6.41;55.79;96096.69;299396;201;63004;-54
2021/03/11 04:12:22;;;;;;;0.60;0.60;;;;;;;6.64;56.50;96114.78;299396;202;63009;-56
2021/03/11 04:17:24;;;;;;;0.60;0.60;;;;;;;6.78;57.72;96116.78;299396;204;63005;-57
2021/03/11 04:22:25;;;;;;;0.60;0.60;;;;;;;7.12;57.58;96111.25;299396;199;63009;-55
2021/03/11 04:27:28;;;;;;;0.60;0.60;;;;;;;7.19;57.70;96099.00;299396;246;63004;-54
2021/03/11 04:32:30;;;;;;;0.70;0.70;;;;;;;7.45;57.59;96094.06;299396;206;63009;-57
2021/03/11 04:37:31;;;;;;;0.60;0.60;;;;;;;7.46;58.24;96089.47;299397;224;63005;-55
2021/03/11 04:42:35;;;;;;;0.60;0.60;;;;;;;7.56;58.45;96089.31;299397;215;63009;-53
2021/03/11 04:47:39;;;;;;;0.70;0.70;;;;;;;7.60;58.31;96090.34;299418;262;63005;-56
2021/03/11 04:52:44;;;;;;;1.35;1.25;;;;;;;7.66;58.72;96099.94;299396;214;63009;-54
2021/03/11 04:57:45;;;;;;;0.60;0.60;;;;;;;7.63;58.83;96101.34;299396;203;63004;-53
2021/03/11 05:02:48;;;;;;;0.60;0.60;;;;;;;7.58;59.24;96097.94;299396;278;63009;-54
2021/03/11 05:07:49;;;;;;;0.60;0.60;;;;;;;7.62;59.08;96102.44;299396;213;63005;-55
2021/03/11 05:12:50;;;;;;;0.60;0.60;;;;;;;7.65;58.92;96087.53;299396;230;63018;-55
2021/03/11 05:17:52;;;;;;;0.60;0.60;;;;;;;7.53;59.68;96096.09;299396;225;63004;-55
2021/03/11 05:22:55;;;;;;;0.93;0.93;;;;;;;7.71;59.36;96103.38;299396;216;63009;-54
2021/03/11 05:27:56;;;;;;;0.73;0.73;;;;;;;7.70;59.78;96100.97;299396;239;63004;-52
2021/03/11 05:32:57;;;;;;;0.60;0.60;;;;;;;7.59;60.14;96094.12;299397;207;63009;-56
2021/03/11 05:38:00;;;;;;;0.60;0.60;;;;;;;7.58;60.44;96095.22;299395;209;63005;-56
2021/03/11 05:43:04;;;;;;;0.60;0.60;;;;;;;7.57;60.56;96096.31;299395;263;63008;-56
2021/03/11 05:48:07;;;;;;;0.60;0.60;;;;;;;7.60;60.39;96090.34;299418;227;63004;-56
2021/03/11 05:53:11;;;;;;;0.60;0.60;;;;;;;7.52;61.05;96088.31;299395;205;63009;-56
2021/03/11 05:58:12;;;;;;;0.60;0.60;;;;;;;7.56;61.76;96090.13;299417;246;63004;-56
2021/03/11 06:03:13;;;;;;;0.60;0.60;;;;;;;7.52;61.56;96097.19;299373;215;63009;-57
2021/03/11 06:08:15;;;;;;;0.70;0.70;;;;;;;7.73;60.90;96086.88;299395;232;63005;-56
2021/03/11 06:13:16;;;;;;;0.62;0.62;;;;;;;7.64;61.93;96073.25;299395;196;63008;-59
2021/03/11 06:18:18;;;;;;;0.60;0.60;;;;;;;7.53;62.32;96055.63;299395;235;63004;-57
2021/03/11 06:23:19;;;;;;;0.60;0.60;;;;;;;7.70;61.77;96052.37;299395;215;63009;-57
2021/03/11 06:29:05;;;;;;;0.70;0.70;;;;;;;7.50;62.28;96031.09;299395;198;63005;-56
2021/03/11 06:34:27;;;;;;;0.60;0.60;;;;;;;7.62;61.83;96034.16;299395;214;63004;-58
2021/03/11 06:39:31;;;;;;;0.60;0.60;;;;;;;7.76;61.19;96035.00;299395;208;63011;-59
2021/03/11 06:44:38;;;;;;;0.60;0.60;;;;;;;7.98;60.17;96042.44;299395;227;63005;-57
2021/03/11 06:50:17;;;;;;;0.60;0.60;;;;;;;8.14;59.38;96037.59;299395;202;63009;-58
2021/03/11 06:55:21;;;;;;;0.60;0.60;;;;;;;8.20;59.05;96022.87;299395;250;63004;-61
2021/03/11 07:00:24;;;;;;;0.60;0.60;;;;;;;8.28;58.82;96016.78;299417;228;63009;-54
2021/03/11 07:05:29;;;;;;;0.70;0.70;;;;;;;8.37;58.49;96028.53;299395;258;63000;-54
2021/03/11 07:10:31;;;;;;;0.85;0.85;;;;;;;8.36;58.39;96032.31;299395;266;63009;-56
2021/03/11 07:15:35;;;;;;;0.60;0.60;;;;;;;8.40;58.61;96030.63;299395;239;63012;-59
2021/03/11 07:20:36;;;;;;;0.60;0.60;;;;;;;8.45;58.98;96041.34;299417;202;63008;-56
2021/03/11 07:25:40;;;;;;;0.68;0.68;;;;;;;8.52;58.86;96022.84;299395;237;63004;-57
2021/03/11 07:31:00;;;;;;;0.60;0.60;;;;;;;8.64;58.49;96017.72;299395;344;63022;-58
2021/03/11 07:36:05;;;;;;;0.60;0.60;;;;;;;8.64;59.06;96017.72;299395;218;63005;-57
2021/03/11 07:41:08;;;;;;;1.02;1.02;;;;;;;8.78;58.70;96033.12;299395;235;63009;-59
2021/03/11 07:46:10;;;;;;;0.60;0.60;;;;;;;8.89;58.54;96029.91;299395;224;63005;-59
2021/03/11 07:51:13;;;;;;;0.80;0.80;;;;;;;9.00;58.51;96014.28;299395;204;63009;-58
2021/03/11 07:56:14;;;;;;;0.60;0.60;;;;;;;9.01;58.77;96027.47;299395;284;63004;-58
2021/03/11 08:01:16;;;;;;;0.62;0.62;;;;;;;9.14;58.11;95998.00;299395;214;63009;-57
2021/03/11 08:06:26;;;;;;;0.70;0.70;;;;;;;9.20;57.75;96013.81;299395;199;63005;-58
2021/03/11 08:11:41;;;;;;;0.60;0.60;;;;;;;9.26;58.15;96023.44;299395;202;63009;-57
2021/03/11 08:16:42;;;;;;;0.60;0.60;;;;;;;9.38;57.69;96010.13;299417;260;63004;-57
2021/03/11 08:21:44;;;;;;;0.60;0.60;;;;;;;9.44;57.50;96005.41;299395;221;63009;-58
2021/03/11 08:26:45;;;;;;;0.60;0.60;;;;;;;9.54;57.54;95990.84;299395;202;63004;-56
2021/03/11 08:31:47;;;;;;;0.60;0.60;;;;;;;9.72;57.00;95971.66;299395;326;63009;-60
2021/03/11 08:36:52;;;;;;;0.70;0.70;;;;;;;9.89;55.94;95965.56;299395;254;63005;-58
2021/03/11 08:41:53;;;;;;;0.50;0.50;;;;;;;9.96;55.92;95965.12;299417;205;63008;-59
2021/03/11 08:46:54;;;;;;;0.70;0.70;;;;;;;10.13;55.64;95958.97;299395;217;63004;-58
2021/03/11 08:51:55;;;;;;;0.60;0.60;;;;;;;10.09;56.19;95942.53;299395;219;63009;-57
2021/03/11 08:56:59;;;;;;;0.60;0.60;;;;;;;10.22;56.98;95932.75;299395;223;63004;-59
2021/03/11 09:02:00;;;;;;;0.60;0.60;;;;;;;10.35;56.86;95935.34;299417;255;63009;-65
2021/03/11 09:07:14;;;;;;;0.60;0.60;;;;;;;10.53;56.56;95914.47;299395;211;63005;-60
2021/03/11 09:12:37;;;;;;;0.60;0.60;;;;;;;10.66;55.97;95918.19;299395;204;63008;-61
2021/03/11 09:17:41;;;;;;;0.60;0.60;;;;;;;10.74;56.28;95923.59;299395;233;63004;-60
2021/03/11 09:22:49;;;;;;;0.60;0.60;;;;;;;10.79;55.70;95900.94;299417;207;63009;-58
2021/03/11 09:28:02;;;;;;;0.60;0.60;;;;;;;10.79;55.94;95919.16;299395;208;63005;-63
2021/03/11 09:33:22;;;;;;;0.75;0.75;;;;;;;10.91;55.46;95919.31;299395;210;63009;-62
2021/03/11 09:38:25;;;;;;;0.60;0.60;;;;;;;10.91;55.23;95935.59;299395;235;63005;-56
2021/03/11 09:43:36;;;;;;;0.60;0.60;;;;;;;10.99;55.61;95910.41;299395;203;63009;-55
2021/03/11 09:48:42;;;;;;;0.60;0.60;;;;;;;11.15;55.06;95900.63;299395;212;63003;-59
2021/03/11 09:53:58;;;;;;;0.90;0.90;;;;;;;11.29;54.98;95901.28;299395;245;63009;-57
2021/03/11 09:59:07;;;;;;;0.60;0.60;;;;;;;11.30;55.05;95899.34;299395;216;63005;-62
2021/03/11 10:04:18;;;;;;;0.50;0.50;;;;;;;11.33;54.90;95883.22;299395;241;63008;-60
2021/03/11 10:09:20;;;;;;;0.88;0.88;;;;;;;11.31;55.35;95934.34;299395;196;63004;-57
2021/03/11 10:14:28;;;;;;;0.50;0.50;;;;;;;11.40;55.90;95883.53;299395;265;63009;-60
2021/03/11 10:19:32;;;;;;;0.50;0.50;;;;;;;11.72;54.70;95884.09;299394;209;64008;-65
2021/03/11 10:24:44;;;;;;;0.50;0.50;;;;;;;11.96;54.92;95899.87;299395;210;63009;-59
2021/03/11 10:30:24;;;;;;;0.50;0.50;;;;;;;12.00;54.92;95890.75;299395;224;63005;-62
2021/03/11 10:35:38;;;;;;;0.50;0.50;;;;;;;12.00;54.91;95890.75;299395;197;63009;-59
2021/03/11 10:40:40;;;;;;;0.50;0.50;;;;;;;11.96;56.09;95889.00;299395;198;63004;-57
2021/03/11 10:45:41;;;;;;;0.50;0.50;;;;;;;12.00;56.34;95879.88;299395;196;63009;-56
2021/03/11 10:50:52;;;;;;;0.50;0.50;;;;;;;11.96;56.58;95884.38;299395;204;63005;-61
2021/03/11 10:56:06;;;;;;;0.60;0.60;;;;;;;11.82;57.69;95893.84;299395;253;63008;-60
2021/03/11 11:01:08;;;;;;;0.50;0.50;;;;;;;11.66;58.58;95907.13;299395;204;63004;-63
2021/03/11 11:06:10;;;;;;;0.50;0.50;;;;;;;11.48;59.62;95921.84;299395;255;63009;-57
2021/03/11 11:11:18;;;;;;;0.50;0.50;;;;;;;11.40;60.51;95932.44;299395;295;63004;-52
2021/03/11 11:16:19;;;;;;;0.50;0.50;;;;;;;11.28;63.89;95934.97;299395;356;63009;-64
2021/03/11 11:21:21;;;;;;;0.60;0.60;;;;;;;10.98;66.41;95938.66;299395;197;63012;-60
2021/03/11 11:26:23;;;;;;;0.57;0.57;;;;;;;10.73;67.74;95946.44;299395;199;63009;-57
2021/03/11 11:31:24;;;;;;;0.60;0.60;;;;;;;10.53;69.25;95949.75;299395;242;63004;-63
2021/03/11 11:36:25;;;;;;;0.60;0.60;;;;;;;10.43;71.14;95944.59;299395;278;63020;-61
2021/03/11 11:41:29;;;;;;;0.50;0.50;;;;;;;10.35;71.62;95929.13;299395;202;63005;-59
2021/03/11 11:46:31;;;;;;;0.60;0.60;;;;;;;10.34;72.32;95922.09;299417;199;63009;-62
2021/03/11 11:51:32;;;;;;;0.50;0.50;;;;;;;10.20;72.82;95918.69;299395;202;63005;-53
2021/03/11 11:56:33;;;;;;;0.60;0.60;;;;;;;10.09;73.39;95899.97;299395;208;63009;-62
2021/03/11 12:01:34;;;;;;;0.50;0.50;;;;;;;10.14;73.60;95890.91;299395;243;63011;-58
2021/03/11 12:06:35;;;;;;;0.50;0.50;;;;;;;10.40;73.49;95893.69;299395;233;63009;-65
2021/03/11 12:11:36;;;;;;;0.50;0.50;;;;;;;10.54;72.80;95888.97;299395;239;63005;-59
2021/03/11 12:16:37;;;;;;;0.60;0.60;;;;;;;10.51;72.72;95888.78;299395;206;63009;-60
2021/03/11 12:21:40;;;;;;;0.50;0.50;;;;;;;10.54;72.05;95850.97;299395;196;63005;-61
2021/03/11 12:26:41;;;;;;;0.50;0.50;;;;;;;10.53;73.18;95852.09;299395;206;63009;-56
2021/03/11 12:31:46;;;;;;;0.50;0.50;;;;;;;10.61;73.02;95835.03;299395;229;63004;-61
2021/03/11 12:36:48;;;;;;;0.50;0.50;;;;;;;10.72;72.34;95828.19;299395;256;63009;-58
2021/03/11 12:41:49;;;;;;;0.50;0.50;;;;;;;10.90;71.45;95814.59;299395;202;63005;-58
2021/03/11 12:46:50;;;;;;;0.50;0.50;;;;;;;11.01;71.17;95821.31;299395;207;63009;-60
2021/03/11 12:51:52;;;;;;;0.50;0.50;;;;;;;11.04;71.13;95821.47;299395;208;63005;-62
2021/03/11 12:56:54;;;;;;;0.50;0.50;;;;;;;11.21;71.20;95820.62;299395;216;63009;-60
2021/03/11 13:01:57;;;;;;;0.50;0.50;;;;;;;11.30;71.14;95828.75;299395;226;63004;-61
2021/03/11 13:06:59;;;;;;;1.07;1.07;;;;;;;11.19;70.74;95831.00;299417;208;63017;-59
2021/03/11 13:12:01;;;;;;;0.50;0.50;;;;;;;11.13;70.79;95820.62;299395;276;63005;-61
2021/03/11 13:17:13;;;;;;;0.60;0.60;;;;;;;11.13;71.68;95805.12;299395;204;63009;-56
2021/03/11 13:22:15;;;;;;;0.50;0.50;;;;;;;11.31;70.96;95806.72;299395;243;63004;-58
2021/03/11 13:27:17;;;;;;;0.50;0.50;;;;;;;11.37;70.06;95813.56;299395;197;63009;-60
2021/03/11 13:32:18;;;;;;;0.50;0.50;;;;;;;11.39;70.42;95789.59;299395;228;63010;-62
2021/03/11 13:37:20;;;;;;;0.50;0.50;;;;;;;11.51;69.60;95783.47;299395;206;63009;-63
2021/03/11 13:42:27;;;;;;;0.50;0.50;;;;;;;11.40;69.38;95769.47;299395;344;63005;-59
2021/03/11 13:47:29;;;;;;;0.50;0.50;;;;;;;11.45;69.92;95765.75;299395;376;63008;-61
2021/03/11 13:52:30;;;;;;;0.50;0.50;;;;;;;11.60;68.58;95754.34;299395;203;63004;-62
2021/03/11 13:57:32;;;;;;;0.50;0.50;;;;;;;11.64;68.71;95771.59;299395;221;63009;-59
2021/03/11 14:02:33;;;;;;;0.50;0.50;;;;;;;11.43;69.30;95755.22;299395;242;63004;-58
2021/03/11 14:07:34;;;;;;;0.50;0.50;;;;;;;11.37;68.67;95770.13;299395;208;63009;-60
2021/03/11 14:12:36;;;;;;;0.60;0.60;;;;;;;11.36;68.55;95760.38;299395;210;63005;-54
2021/03/11 14:17:37;;;;;;;0.50;0.50;;;;;;;11.38;69.04;95754.63;299395;215;63008;-58
2021/03/11 14:22:38;;;;;;;0.60;0.60;;;;;;;11.36;67.91;95744.06;299395;242;63004;-60
2021/03/11 14:27:42;;;;;;;0.50;0.50;;;;;;;11.50;68.14;95746.56;299395;202;63029;-61
2021/03/11 14:32:44;;;;;;;0.60;0.60;;;;;;;11.63;67.58;95750.19;299417;214;63004;-61
2021/03/11 14:37:46;;;;;;;0.50;0.50;;;;;;;11.55;67.97;95730.09;299395;222;63027;-60
2021/03/11 14:42:49;;;;;;;0.60;0.60;;;;;;;11.77;67.35;95750.81;299395;235;63005;-59
2021/03/11 14:47:52;;;;;;;0.60;0.60;;;;;;;11.59;67.97;95757.41;299395;205;63009;-55
2021/03/11 14:53:00;;;;;;;0.50;0.50;;;;;;;11.54;68.22;95736.62;299395;259;63004;-62
2021/03/11 14:58:02;;;;;;;0.50;0.50;;;;;;;11.32;69.44;95747.75;299395;223;63009;-53
2021/03/11 15:03:13;;;;;;;0.50;0.50;;;;;;;11.11;69.50;95750.38;299395;199;63005;-64
2021/03/11 15:08:18;;;;;;;0.50;0.50;;;;;;;10.98;69.13;95751.38;299395;213;63009;-60
2021/03/11 15:13:19;;;;;;;;;;;;;;;11.00;67.50;95757.28;299996;983;6000;-58
2021/03/11 15:18:23;;;;;;;0.60;0.60;;;;;;;10.86;65.80;95767.50;299400;203;63005;-64
2021/03/11 15:23:24;;;;;;;;;;;;;;;10.59;67.64;95714.41;299996;983;6004;-58
2021/03/11 15:28:29;;;;;;;0.50;0.50;;;;;;;10.53;67.76;95730.03;299400;297;63009;-58
2021/03/11 15:33:32;;;;;;;0.50;0.50;;;;;;;10.56;63.27;95737.53;299395;297;63005;-64
2021/03/11 15:38:33;;;;;;;0.50;0.50;;;;;;;10.59;61.92;95714.41;299395;223;63008;-59
2021/03/11 15:43:34;;;;;;;0.60;0.60;;;;;;;10.52;60.50;95771.84;299395;199;63004;-61
2021/03/11 15:48:38;;;;;;;0.50;0.50;;;;;;;10.55;55.73;95730.53;299395;287;63009;-57
2021/03/11 15:53:39;;;;;;;0.50;0.50;;;;;;;10.33;59.01;95752.41;299395;224;63004;-54
2021/03/11 15:58:43;;;;;;;0.50;0.50;;;;;;;9.96;63.88;95768.09;299395;297;63009;-59
2021/03/11 16:03:45;;;;;;;0.70;0.70;;;;;;;9.87;63.76;95733.97;299417;362;63005;-59
2021/03/11 16:08:46;;;;;;;0.60;0.60;;;;;;;9.81;65.38;95725.19;299395;234;63008;-57
2021/03/11 16:13:49;;;;;;;0.50;0.50;;;;;;;9.66;65.96;95729.16;299394;278;64009;-58
2021/03/11 16:18:54;;;;;;;0.60;0.60;;;;;;;9.51;67.67;95721.47;299395;219;63009;-58
2021/03/11 16:23:59;;;;;;;0.60;0.60;;;;;;;9.41;68.78;95744.19;299418;202;63004;-55
2021/03/11 16:29:01;;;;;;;0.60;0.60;;;;;;;9.31;70.17;95758.03;299396;212;63009;-58
2021/03/11 16:34:02;;;;;;;0.50;0.50;;;;;;;9.34;69.73;95749.28;299396;269;63005;-58
2021/03/11 16:39:05;;;;;;;0.60;0.60;;;;;;;9.30;69.20;95764.56;299396;210;63008;-64
2021/03/11 16:44:09;;;;;;;0.60;0.60;;;;;;;9.41;68.55;95749.59;299396;233;63004;-61
2021/03/11 16:49:14;;;;;;;0.60;0.60;;;;;;;9.24;70.75;95757.69;299396;301;63009;-57
2021/03/11 16:54:16;;;;;;;0.60;0.60;;;;;;;8.87;72.36;95731.06;299396;242;63005;-60
2021/03/11 16:59:21;;;;;;;0.60;0.60;;;;;;;8.85;72.43;95752.22;299396;242;63009;-60
2021/03/11 17:04:25;;;;;;;0.60;0.60;;;;;;;8.80;72.64;95733.41;299396;207;63005;-58
2021/03/11 17:09:29;;;;;;;0.60;0.60;;;;;;;8.55;72.96;95719.41;299419;283;63009;-61
2021/03/11 17:14:33;;;;;;;0.60;0.60;;;;;;;8.52;72.49;95716.53;299419;218;63004;-54
2021/03/11 17:19:34;;;;;;;0.60;0.60;;;;;;;8.65;70.87;95730.00;299418;230;63009;-59
2021/03/11 17:24:36;;;;;;;0.60;0.60;;;;;;;8.58;69.97;95759.34;299396;218;63005;-58
2021/03/11 17:29:38;;;;;;;0.60;0.60;;;;;;;8.56;69.64;95758.06;299396;298;63009;-60
2021/03/11 17:34:39;;;;;;;0.60;0.60;;;;;;;8.44;69.78;95753.19;299396;215;63005;-58
2021/03/11 17:39:40;;;;;;;1.00;0.85;;;;;;;8.52;69.38;95738.94;299396;202;63009;-60
2021/03/11 17:44:41;;;;;;;0.60;0.60;;;;;;;8.56;69.01;95734.53;299396;202;63004;-63
2021/03/11 17:49:42;;;;;;;0.60;0.60;;;;;;;8.52;69.33;95760.59;299396;216;63009;-52
2021/03/11 17:54:44;;;;;;;0.60;0.60;;;;;;;8.35;70.31;95744.22;299396;199;63005;-58
2021/03/11 17:59:45;;;;;;;0.60;0.60;;;;;;;8.48;69.35;95775.00;299396;208;63009;-57
2021/03/11 18:04:47;;;;;;;0.60;0.60;;;;;;;8.40;69.83;95776.53;299397;196;63005;-59
2021/03/11 18:09:50;;;;;;;0.60;0.60;;;;;;;8.34;69.64;95753.44;299395;229;63009;-60
2021/03/11 18:15:05;;;;;;;;;;;;;;;;;;;;;
2021/03/11 18:20:13;;;;;;;0.60;0.60;;;;;;;8.50;68.29;95767.41;299395;205;63009;-55
2021/03/11 18:25:15;;;;;;;0.60;0.60;;;;;;;8.47;68.51;95771.50;299417;208;63005;-60
2021/03/11 18:30:21;;;;;;;0.60;0.60;;;;;;;8.47;67.97;95768.81;299395;230;63008;-58
2021/03/11 18:35:23;;;;;;;0.60;0.60;;;;;;;8.45;67.54;95757.50;299395;247;63004;-60
2021/03/11 18:40:27;;;;;;;0.80;0.80;;;;;;;8.48;67.39;95762.28;299395;272;63009;-56
2021/03/11 18:45:29;;;;;;;0.60;0.60;;;;;;;8.32;68.16;95761.00;299395;250;63004;-58
2021/03/11 18:50:30;;;;;;;0.60;0.60;;;;;;;8.53;66.90;95751.38;299395;276;63009;-58
2021/03/11 18:55:32;;;;;;;0.60;0.60;;;;;;;8.54;66.93;95747.56;299395;304;63005;-58
2021/03/11 19:00:38;;;;;;;0.60;0.60;;;;;;;8.42;67.62;95771.63;299395;224;63008;-58
2021/03/11 19:05:42;;;;;;;0.60;0.60;;;;;;;8.32;68.33;95793.44;299395;208;63004;-59
2021/03/11 19:10:43;;;;;;;0.60;0.60;;;;;;;8.25;67.92;95815.50;299439;377;63009;-58
2021/03/11 19:15:45;;;;;;;0.60;0.60;;;;;;;8.50;66.89;95837.69;299394;243;64005;-63
2021/03/11 19:20:47;;;;;;;0.60;0.60;;;;;;;8.49;66.51;95844.19;299395;196;63009;-61
2021/03/11 19:25:48;;;;;;;0.60;0.60;;;;;;;8.74;67.32;95960.72;299395;220;63005;-52
2021/03/11 19:30:49;;;;;;;0.60;0.60;;;;;;;6.99;73.71;95967.91;299395;258;63009;-62
2021/03/11 19:35:50;;;;;;;1.75;0.85;;;;;;;6.11;77.81;95973.09;299395;220;63004;-55
2021/03/11 19:40:52;;;;;;;0.62;0.62;;;;;;;5.89;79.34;95971.72;299395;248;63009;-54
2021/03/11 19:45:55;;;;;;;0.70;0.70;;;;;;;5.81;79.47;95947.28;299395;198;63005;-57
2021/03/11 19:50:58;;;;;;;0.70;0.70;;;;;;;5.74;79.70;95955.69;299395;208;63009;-55
2021/03/11 19:55:59;;;;;;;0.70;0.70;;;;;;;5.69;80.13;95977.28;299395;321;63005;-58
2021/03/11 20:01:00;;;;;;;0.70;0.70;;;;;;;5.75;78.72;96002.25;299395;227;63009;-62
2021/03/11 20:06:01;;;;;;;0.70;0.70;;;;;;;5.65;79.99;96014.72;299395;278;63004;-60
2021/03/11 20:11:02;;;;;;;0.70;0.70;;;;;;;5.55;81.24;96030.13;299395;218;63022;-59
2021/03/11 20:16:04;;;;;;;0.70;0.70;;;;;;;5.46;79.37;96015.69;299395;298;63005;-59
2021/03/11 20:21:05;;;;;;;0.70;0.70;;;;;;;5.27;79.77;96029.81;299395;229;63009;-54
2021/03/11 20:26:09;;;;;;;0.70;0.70;;;;;;;5.15;79.46;96015.13;299395;315;63005;-56
2021/03/11 20:31:11;;;;;;;0.70;0.70;;;;;;;5.05;80.53;96054.44;299395;232;63009;-53
2021/03/11 20:36:12;;;;;;;0.60;0.60;;;;;;;5.05;80.16;96069.75;299395;229;63004;-62
2021/03/11 20:41:14;;;;;;;0.70;0.70;;;;;;;4.97;80.54;96051.53;299395;341;63009;-58
2021/03/11 20:46:15;;;;;;;0.70;0.70;;;;;;;4.79;82.43;96057.53;299395;230;63005;-58
2021/03/11 20:51:17;;;;;;;0.70;0.70;;;;;;;4.85;81.91;96041.09;299395;209;63020;-60
2021/03/11 20:56:18;;;;;;;1.00;1.00;;;;;;;4.81;81.97;96063.44;299395;212;63005;-57
2021/03/11 21:01:20;;;;;;;0.70;0.70;;;;;;;4.78;82.81;96085.50;299395;274;63009;-58
2021/03/11 21:06:22;;;;;;;0.70;0.70;;;;;;;4.86;82.32;96087.59;299395;224;63004;-61
2021/03/11 21:11:23;;;;;;;0.80;0.80;;;;;;;4.68;83.20;96097.87;299395;205;63009;-61
2021/03/11 21:16:24;;;;;;;0.70;0.70;;;;;;;4.75;82.36;96121.78;299394;263;64005;-57
2021/03/11 21:21:26;;;;;;;0.70;0.70;;;;;;;4.57;84.26;96133.12;299395;213;63009;-58
2021/03/11 21:26:27;;;;;;;0.70;0.70;;;;;;;4.61;83.93;96140.38;299395;213;63005;-66
2021/03/11 21:31:28;;;;;;;0.60;0.60;;;;;;;4.38;84.41;96151.72;299395;340;63009;-58
2021/03/11 21:36:30;;;;;;;0.70;0.70;;;;;;;4.52;83.05;96122.37;299395;303;63004;-55
2021/03/11 21:41:33;;;;;;;0.60;0.60;;;;;;;4.37;84.04;96101.75;299395;282;63009;-56
2021/03/11 21:46:36;;;;;;;0.60;0.60;;;;;;;4.37;83.63;96117.88;299395;219;63011;-55
2021/03/11 21:51:38;;;;;;;0.70;0.70;;;;;;;4.65;81.80;96113.75;299439;366;63008;-58
2021/03/11 21:56:39;;;;;;;0.60;0.60;;;;;;;4.61;82.60;96102.75;299395;236;63004;-54
2021/03/11 22:01:41;;;;;;;0.70;0.70;;;;;;;4.77;79.92;96118.81;299395;264;63009;-60
2021/03/11 22:06:42;;;;;;;0.70;0.70;;;;;;;4.78;80.34;96139.25;299395;196;63004;-55
2021/03/11 22:11:45;;;;;;;0.60;0.60;;;;;;;4.84;80.09;96143.53;299394;272;64013;-59
2021/03/11 22:16:45;;;;;;;0.70;0.70;;;;;;;4.77;80.77;96129.56;299395;197;63005;-57
2021/03/11 22:21:49;;;;;;;0.70;0.70;;;;;;;4.66;80.94;96134.97;299395;361;63008;-58
2021/03/11 22:26:53;;;;;;;0.70;0.70;;;;;;;4.65;81.34;96154.88;299377;238;125008;-58
2021/03/11 22:31:55;;;;;;;0.80;0.80;;;;;;;4.75;80.34;96170.16;299417;341;63009;-57
2021/03/11 22:36:56;;;;;;;0.70;0.70;;;;;;;4.61;81.02;96156.47;299395;202;63004;-57
2021/03/11 22:41:57;;;;;;;0.70;0.70;;;;;;;4.60;80.90;96157.56;299395;216;63009;-55
2021/03/11 22:46:58;;;;;;;0.70;0.70;;;;;;;4.54;81.34;96152.47;299395;213;63005;-60
2021/03/11 22:51:59;;;;;;;0.62;0.62;;;;;;;4.52;81.04;96158.09;299395;196;63008;-60
2021/03/11 22:57:00;;;;;;;0.70;0.70;;;;;;;4.44;81.78;96149.81;299395;240;63004;-60
2021/03/11 23:02:01;;;;;;;0.70;0.70;;;;;;;4.37;82.15;96172.38;299395;199;63009;-59
2021/03/11 23:07:06;;;;;;;0.70;0.70;;;;;;;4.18;82.35;96184.75;299395;294;63005;-59
2021/03/11 23:12:09;;;;;;;0.70;0.70;;;;;;;4.19;81.64;96196.28;299417;256;63009;-53
2021/03/11 23:17:10;;;;;;;0.60;0.60;;;;;;;4.12;82.20;96214.56;299395;212;63005;-57
2021/03/11 23:22:14;;;;;;;0.60;0.60;;;;;;;4.09;82.64;96207.06;299395;223;63009;-59
2021/03/11 23:27:16;;;;;;;0.60;0.60;;;;;;;4.10;82.30;96192.56;299395;197;63004;-55
2021/03/11 23:32:17;;;;;;;0.60;0.60;;;;;;;4.09;82.03;96207.06;299395;217;63009;-60
2021/03/11 23:37:18;;;;;;;0.60;0.60;;;;;;;4.14;81.57;96201.69;299395;228;63015;-58
2021/03/11 23:42:19;;;;;;;0.70;0.70;;;;;;;3.98;82.58;96203.53;299395;226;63009;-59
2021/03/11 23:47:20;;;;;;;0.70;0.70;;;;;;;4.23;81.13;96213.47;299395;206;63005;-60
2021/03/11 23:52:21;;;;;;;0.70;0.70;;;;;;;4.38;80.32;96216.16;299395;270;63023;-58
2021/03/11 23:57:23;;;;;;;0.70;0.70;;;;;;;4.55;79.04;96202.44;299395;256;63004;-58
